Time;durP1;ratioP1;P1;durP2;ratioP2;P2;SDS_P1;SDS_P2;PMS_P1;PMS_P2;Temp;Humidity;BMP_temperature;BMP_pressure;BME280_temperature;BME280_humidity;BME280_pressure;Samples;Min_cycle;Max_cycle;Signal;HPM_P1;HPM_P2
2023/03/02 00:04:58;;;;;;;;;;;;;;;-1.06;81.32;102399.16;10420540;28;19925;-62
2023/03/02 00:10:00;;;;;;;;;;;;;;;-0.68;83.20;102404.03;10421209;28;19925;-62
2023/03/02 00:15:03;;;;;;;;;;;;;;;-0.80;81.92;102406.41;10419702;28;19925;-62
2023/03/02 00:20:08;;;;;;;;;;;;;;;-1.05;82.37;102406.00;10418950;28;19925;-62
2023/03/02 00:25:11;;;;;;;;;;;;;;;-1.12;83.35;102409.31;10419799;28;19930;-62
2023/03/02 00:30:14;;;;;;;;;;;;;;;-0.89;83.95;102395.97;10405015;23;19990;-62
2023/03/02 00:35:16;;;;;;;;;;;;;;;-0.88;84.31;102396.00;10377551;28;19933;-62
2023/03/02 00:40:18;;;;;;;;;;;;;;;-0.73;83.68;102395.38;10376987;28;19948;-63
2023/03/02 00:45:20;;;;;;;;;;;;;;;-0.77;86.19;102401.31;10418878;28;19925;-62
2023/03/02 00:50:23;;;;;;;;;;;;;;;-1.19;87.86;102389.50;10419805;28;19928;-62
2023/03/02 00:55:25;;;;;;;;;;;;;;;-0.98;91.01;102404.41;10419543;28;19925;-63
2023/03/02 01:00:27;;;;;;;;;;;;;;;-0.88;90.72;102400.28;10399653;28;19925;-62
2023/03/02 01:05:29;;;;;;;;;;;;;;;-1.17;92.92;102409.25;10400310;28;19992;-62
2023/03/02 01:10:32;;;;;;;;;;;;;;;-0.82;91.68;102403.81;10418274;28;19948;-62
2023/03/02 01:15:34;;;;;;;;;;;;;;;-1.02;93.14;102403.50;10418137;28;19929;-62
2023/03/02 01:20:37;;;;;;;;;;;;;;;-0.82;94.38;102401.25;10416331;28;19925;-62
2023/03/02 01:25:39;;;;;;;;;;;;;;;-0.79;94.49;102403.88;10418402;28;19929;-62
2023/03/02 01:30:41;;;;;;;;;;;;;;;-1.00;90.75;102390.66;10415572;28;19925;-62
2023/03/02 01:35:44;;;;;;;;;;;;;;;-0.88;93.50;102388.28;10416566;28;20326;-62
2023/03/02 01:40:46;;;;;;;;;;;;;;;-0.80;97.32;102388.41;10397991;28;19929;-62
2023/03/02 01:45:53;;;;;;;;;;;;;;;-0.85;94.90;102385.75;10416988;28;19948;-62
2023/03/02 01:50:55;;;;;;;;;;;;;;;-0.98;99.60;102379.56;10417356;28;19975;-62
2023/03/02 01:55:57;;;;;;;;;;;;;;;-0.86;98.58;102383.16;10397991;28;19971;-63
2023/03/02 02:00:59;;;;;;;;;;;;;;;-1.05;100.00;102376.88;10415388;28;19951;-62
2023/03/02 02:06:07;;;;;;;;;;;;;;;-0.89;100.00;102368.56;10415565;28;20342;-62
2023/03/02 02:11:09;;;;;;;;;;;;;;;-0.90;99.60;102373.69;10383011;28;19929;-62
2023/03/02 02:16:11;;;;;;;;;;;;;;;-0.73;99.04;102367.06;10414138;28;19956;-62
2023/03/02 02:21:13;;;;;;;;;;;;;;;-0.87;100.00;102359.16;10415027;28;19978;-62
2023/03/02 02:26:17;;;;;;;;;;;;;;;-0.63;100.00;102368.94;10398313;28;20379;-62
2023/03/02 02:31:21;;;;;;;;;;;;;;;-0.83;100.00;102362.63;10415677;28;19925;-62
2023/03/02 02:36:31;;;;;;;;;;;;;;;-0.73;100.00;102358.50;10396631;28;20427;-62
2023/03/02 02:41:36;;;;;;;;;;;;;;;-0.79;100.00;102361.84;10396849;28;19925;-62
2023/03/02 02:46:38;;;;;;;;;;;;;;;-0.98;100.00;102351.28;10396386;28;19972;-62
2023/03/02 02:51:40;;;;;;;;;;;;;;;-0.90;100.00;102351.41;10415142;28;19925;-62
2023/03/02 02:56:43;;;;;;;;;;;;;;;-0.95;100.00;102358.19;10397382;28;19933;-62
2023/03/02 03:01:45;;;;;;;;;;;;;;;-0.70;100.00;102358.56;10414790;28;19925;-62
2023/03/02 03:06:52;;;;;;;;;;;;;;;-0.87;100.00;102353.16;10413506;28;20339;-62
2023/03/02 03:11:55;;;;;;;;;;;;;;;-1.32;100.00;102352.44;10406167;28;19932;-62
2023/03/02 03:16:57;;;;;;;;;;;;;;;-1.12;100.00;102342.50;10421874;28;19929;-62
2023/03/02 03:22:00;;;;;;;;;;;;;;;-1.29;100.00;102343.91;10420318;28;19925;-62
2023/03/02 03:27:04;;;;;;;;;;;;;;;-1.16;100.00;102345.84;10422423;28;19929;-62
2023/03/02 03:32:06;;;;;;;;;;;;;;;-1.31;100.00;102347.34;10404591;28;20536;-62
2023/03/02 03:37:09;;;;;;;;;;;;;;;-1.38;100.00;102348.06;10421184;28;19925;-62
2023/03/02 03:42:12;;;;;;;;;;;;;;;-1.37;100.00;102351.50;10420135;28;20039;-62
2023/03/02 03:47:14;;;;;;;;;;;;;;;-1.38;100.00;102352.34;10422238;28;19925;-62
2023/03/02 03:52:16;;;;;;;;;;;;;;;-1.27;100.00;102353.38;10421403;28;20372;-62
2023/03/02 03:57:18;;;;;;;;;;;;;;;-1.47;100.00;102341.91;10420643;28;20336;-62
2023/03/02 04:02:20;;;;;;;;;;;;;;;-1.44;100.00;102340.25;10403277;28;19926;-62
2023/03/02 04:07:23;;;;;;;;;;;;;;;-1.21;100.00;102340.66;10402186;28;19936;-62
2023/03/02 04:12:25;;;;;;;;;;;;;;;-1.22;100.00;102341.47;10421364;28;19932;-62
2023/03/02 04:17:27;;;;;;;;;;;;;;;-1.20;100.00;102347.50;10421018;28;19969;-62
2023/03/02 04:22:29;;;;;;;;;;;;;;;-1.20;100.00;102352.63;10401256;28;19932;-61
2023/03/02 04:27:32;;;;;;;;;;;;;;;-1.63;100.00;102357.06;10419985;28;20327;-62
2023/03/02 04:32:34;;;;;;;;;;;;;;;-1.45;100.00;102359.06;10419720;28;20295;-62
2023/03/02 04:37:36;;;;;;;;;;;;;;;-1.15;100.00;102351.00;10419426;28;19925;-62
2023/03/02 04:42:38;;;;;;;;;;;;;;;-0.98;100.00;102353.84;10417839;28;19925;-62
2023/03/02 04:47:41;;;;;;;;;;;;;;;-1.10;100.00;102361.38;10419366;28;20327;-62
2023/03/02 04:52:43;;;;;;;;;;;;;;;-0.94;100.00;102360.78;10419047;28;19928;-62
2023/03/02 04:57:45;;;;;;;;;;;;;;;-0.80;100.00;102357.56;10419444;28;19932;-62
2023/03/02 05:02:47;;;;;;;;;;;;;;;-0.87;100.00;102356.59;10416474;28;19932;-62
2023/03/02 05:07:50;;;;;;;;;;;;;;;-0.83;100.00;102357.50;10400902;28;19948;-62
2023/03/02 05:13:01;;;;;;;;;;;;;;;-0.77;100.00;102348.16;10418892;28;19971;-62
2023/03/02 05:18:04;;;;;;;;;;;;;;;-1.00;100.00;102347.81;10417254;28;19933;-62
2023/03/02 05:23:07;;;;;;;;;;;;;;;-0.98;100.00;102340.97;10416273;28;19925;-62
2023/03/02 05:28:09;;;;;;;;;;;;;;;-1.15;100.00;102345.88;10400633;28;19975;-62
2023/03/02 05:33:12;;;;;;;;;;;;;;;-1.15;100.00;102337.31;10416772;28;20384;-62
2023/03/02 05:38:14;;;;;;;;;;;;;;;-1.09;100.00;102339.97;10417784;28;19971;-62
2023/03/02 05:43:17;;;;;;;;;;;;;;;-1.18;100.00;102338.13;10416358;28;19925;-62
2023/03/02 05:48:19;;;;;;;;;;;;;;;-1.19;100.00;102338.09;10416240;28;20300;-61
2023/03/02 05:53:21;;;;;;;;;;;;;;;-1.00;100.00;102344.38;10414647;28;20304;-62
2023/03/02 05:58:23;;;;;;;;;;;;;;;-1.14;100.00;102339.91;10414484;28;20399;-62
2023/03/02 06:03:26;;;;;;;;;;;;;;;-1.21;100.00;102339.75;10415119;28;19925;-62
2023/03/02 06:08:28;;;;;;;;;;;;;;;-1.35;100.00;102348.09;10416977;28;19929;-62
2023/03/02 06:13:30;;;;;;;;;;;;;;;-1.26;100.00;102344.84;10416102;28;20371;-62
2023/03/02 06:18:33;;;;;;;;;;;;;;;-1.25;100.00;102345.69;10413461;28;19944;-62
2023/03/02 06:23:35;;;;;;;;;;;;;;;-1.39;100.00;102350.63;10415720;28;19925;-62
2023/03/02 06:28:37;;;;;;;;;;;;;;;-1.27;100.00;102352.53;10415500;28;19952;-62
2023/03/02 06:33:53;;;;;;;;;;;;;;;-1.39;100.00;102363.47;10415335;28;19929;-62
2023/03/02 06:38:55;;;;;;;;;;;;;;;-1.33;100.00;102363.56;10413470;28;19931;-62
2023/03/02 06:43:58;;;;;;;;;;;;;;;-1.31;100.00;102360.19;10405763;28;19925;-62
2023/03/02 06:49:00;;;;;;;;;;;;;;;-1.19;100.00;102359.53;10428875;28;19925;-62
2023/03/02 06:54:03;;;;;;;;;;;;;;;-1.15;100.00;102358.72;10429334;28;19929;-62
2023/03/02 06:59:05;;;;;;;;;;;;;;;-1.07;100.00;102368.28;10426285;28;19926;-62
2023/03/02 07:04:07;;;;;;;;;;;;;;;-0.96;100.00;102370.19;10428532;28;19978;-62
2023/03/02 07:09:10;;;;;;;;;;;;;;;-0.74;100.00;102370.47;10429316;28;19932;-62
2023/03/02 07:14:12;;;;;;;;;;;;;;;-0.70;100.00;102371.41;10428486;28;19929;-63
2023/03/02 07:19:15;;;;;;;;;;;;;;;-0.45;100.00;102364.91;10425755;28;20392;-62
2023/03/02 07:24:17;;;;;;;;;;;;;;;-0.30;100.00;102365.09;10428326;28;20376;-62
2023/03/02 07:29:19;;;;;;;;;;;;;;;0.08;100.00;102363.81;10428799;28;19926;-62
2023/03/02 07:34:23;;;;;;;;;;;;;;;0.41;100.00;102367.63;10426358;28;19929;-62
2023/03/02 07:39:25;;;;;;;;;;;;;;;0.33;100.00;102360.66;10425789;28;19925;-62
2023/03/02 07:44:27;;;;;;;;;;;;;;;0.51;100.00;102357.41;10428712;28;19928;-62
2023/03/02 07:49:29;;;;;;;;;;;;;;;0.76;100.00;102356.75;10428554;28;19932;-62
2023/03/02 07:54:32;;;;;;;;;;;;;;;1.40;98.08;102364.09;10405713;28;19971;-63
2023/03/02 07:59:34;;;;;;;;;;;;;;;1.54;95.59;102367.59;10419528;28;19925;-63
2023/03/02 08:04:36;;;;;;;;;;;;;;;1.99;94.26;102358.34;10421072;28;20426;-63
2023/03/02 08:09:38;;;;;;;;;;;;;;;2.18;93.28;102360.97;10413992;28;20446;-63
2023/03/02 08:14:41;;;;;;;;;;;;;;;2.99;90.60;102360.19;10419307;28;20432;-62
2023/03/02 08:19:43;;;;;;;;;;;;;;;3.33;88.36;102361.00;10419591;28;19929;-62
2023/03/02 08:24:45;;;;;;;;;;;;;;;4.02;86.51;102357.31;10420821;28;19975;-62
2023/03/02 08:29:47;;;;;;;;;;;;;;;4.06;84.56;102352.97;10418560;28;19925;-62
2023/03/02 08:34:50;;;;;;;;;;;;;;;4.96;81.92;102348.00;10420503;28;19925;-62
2023/03/02 08:39:52;;;;;;;;;;;;;;;4.75;81.09;102338.66;10418789;28;20388;-62
2023/03/02 08:44:55;;;;;;;;;;;;;;;5.64;80.10;102332.56;10420107;28;19925;-62
2023/03/02 08:49:57;;;;;;;;;;;;;;;6.36;77.58;102335.09;10401117;28;19933;-62
2023/03/02 08:54:59;;;;;;;;;;;;;;;6.88;74.90;102342.91;10419453;28;19925;-62
2023/03/02 09:00:08;;;;;;;;;;;;;;;7.17;73.05;102341.53;10418939;28;19929;-62
2023/03/02 09:05:11;;;;;;;;;;;;;;;7.89;70.88;102344.47;10418372;28;20316;-62
2023/03/02 09:10:13;;;;;;;;;;;;;;;7.52;70.06;102339.16;10418547;28;20370;-62
2023/03/02 09:15:15;;;;;;;;;;;;;;;8.80;67.18;102337.16;10400585;28;19925;-63
2023/03/02 09:20:17;;;;;;;;;;;;;;;9.05;65.33;102337.38;10418624;28;19979;-63
2023/03/02 09:25:20;;;;;;;;;;;;;;;9.15;64.03;102348.44;10400268;28;20335;-63
2023/03/02 09:30:22;;;;;;;;;;;;;;;9.12;62.62;102343.31;10417918;28;19953;-63
2023/03/02 09:35:24;;;;;;;;;;;;;;;9.82;60.67;102345.69;10417490;28;19925;-63
2023/03/02 09:40:26;;;;;;;;;;;;;;;11.05;59.45;102330.44;10418078;28;19925;-63
2023/03/02 09:45:34;;;;;;;;;;;;;;;11.25;56.49;102336.78;10417184;28;19925;-63
2023/03/02 09:50:38;;;;;;;;;;;;;;;11.29;54.49;102331.34;10400008;28;19932;-64
2023/03/02 09:55:40;;;;;;;;;;;;;;;11.79;53.52;102343.50;10399126;28;19926;-64
2023/03/02 10:00:43;;;;;;;;;;;;;;;13.22;52.58;102336.00;10417203;28;19929;-64
2023/03/02 10:05:49;;;;;;;;;;;;;;;13.40;50.67;102332.59;10399594;28;19925;-64
2023/03/02 10:10:54;;;;;;;;;;;;;;;12.68;50.57;102326.00;10400040;28;19925;-64
2023/03/02 10:15:56;;;;;;;;;;;;;;;14.44;48.94;102318.03;10416083;28;19928;-65
2023/03/02 10:20:59;;;;;;;;;;;;;;;15.27;47.69;102321.75;10398389;28;19929;-65
2023/03/02 10:26:17;;;;;;;;;;;;;;;14.04;47.29;102314.75;10399153;28;19925;-65
2023/03/02 10:31:25;;;;;;;;;;;;;;;15.76;46.99;102321.75;10398225;28;19932;-65
2023/03/02 10:36:29;;;;;;;;;;;;;;;15.27;45.35;102316.47;10415386;28;20387;-65
2023/03/02 10:41:32;;;;;;;;;;;;;;;15.87;43.70;102317.66;10398689;28;19932;-65
2023/03/02 10:46:39;;;;;;;;;;;;;;;18.37;41.30;102306.94;10397953;28;20310;-65
2023/03/02 10:51:42;;;;;;;;;;;;;;;18.84;40.22;102309.13;10415246;28;20015;-65
2023/03/02 10:56:47;;;;;;;;;;;;;;;17.85;39.99;102315.59;10415776;28;19925;-66
2023/03/02 11:02:03;;;;;;;;;;;;;;;17.82;39.56;102316.66;10416343;28;19926;-66
2023/03/02 11:07:06;;;;;;;;;;;;;;;19.23;38.94;102310.84;10415569;28;19926;-66
2023/03/02 11:12:15;;;;;;;;;;;;;;;17.61;40.57;102313.56;10415573;28;19925;-66
2023/03/02 11:17:21;;;;;;;;;;;;;;;19.61;37.56;102301.09;10415384;28;19952;-66
2023/03/02 11:22:29;;;;;;;;;;;;;;;18.25;38.37;102286.50;10381676;28;19929;-66
2023/03/02 11:27:32;;;;;;;;;;;;;;;18.60;37.03;102279.81;10413198;28;19925;-66
2023/03/02 11:32:51;;;;;;;;;;;;;;;19.46;35.44;102279.13;10404669;28;19925;-66
2023/03/02 11:37:54;;;;;;;;;;;;;;;19.17;33.63;102268.78;10404534;28;19929;-66
2023/03/02 11:42:57;;;;;;;;;;;;;;;19.91;34.70;102271.47;10399636;28;19987;-67
2023/03/02 11:48:06;;;;;;;;;;;;;;;20.13;34.53;102257.41;10421208;28;19932;-67
2023/03/02 11:53:10;;;;;;;;;;;;;;;22.23;32.19;102248.88;10421621;28;19979;-67
2023/03/02 11:58:17;;;;;;;;;;;;;;;19.72;34.33;102255.13;10403167;28;20284;-67
2023/03/02 12:03:21;;;;;;;;;;;;;;;21.86;32.10;102251.94;10421887;28;19932;-68
2023/03/02 12:08:23;;;;;;;;;;;;;;;21.79;32.58;102240.94;10419782;28;19929;-68
2023/03/02 12:13:29;;;;;;;;;;;;;;;19.48;34.97;102250.66;10402882;28;19925;-68
2023/03/02 12:18:48;;;;;;;;;;;;;;;19.45;35.70;102237.59;10403080;28;19952;-67
2023/03/02 12:23:50;;;;;;;;;;;;;;;21.18;35.13;102230.72;10404044;28;19925;-69
2023/03/02 12:29:12;;;;;;;;;;;;;;;21.88;33.69;102207.34;10402907;28;19979;-68
2023/03/02 12:34:24;;;;;;;;;;;;;;;21.49;33.20;102207.00;10420515;28;19925;-68
2023/03/02 12:39:31;;;;;;;;;;;;;;;21.15;34.22;102199.88;10419066;28;20364;-69
2023/03/02 12:44:44;;;;;;;;;;;;;;;21.76;31.46;102181.72;10391813;23;19926;-74
2023/03/02 12:49:50;;;;;;;;;;;;;;;20.26;32.62;102182.91;10378555;28;19926;-74
2023/03/02 12:55:03;;;;;;;;;;;;;;;21.95;31.61;102175.66;10418388;28;19932;-74
2023/03/02 13:00:11;;;;;;;;;;;;;;;22.02;30.85;102182.16;10419079;28;20335;-75
2023/03/02 13:05:18;;;;;;;;;;;;;;;21.23;31.33;102169.97;10401925;28;19925;-74
2023/03/02 13:10:37;;;;;;;;;;;;;;;21.34;31.88;102166.44;10401121;28;19932;-74
2023/03/02 13:15:53;;;;;;;;;;;;;;;21.88;31.12;102160.19;10401363;28;20008;-74
2023/03/02 13:20:55;;;;;;;;;;;;;;;23.03;29.56;102155.72;10401290;28;19936;-74
2023/03/02 13:25:58;;;;;;;;;;;;;;;21.91;30.77;102148.44;10401150;28;19932;-74
2023/03/02 13:31:04;;;;;;;;;;;;;;;21.71;30.90;102145.59;10419070;28;19972;-74
2023/03/02 13:36:06;;;;;;;;;;;;;;;21.65;30.67;102143.47;10400761;28;19932;-74
2023/03/02 13:41:09;;;;;;;;;;;;;;;22.87;30.93;102140.22;10417984;28;19925;-74
2023/03/02 13:46:11;;;;;;;;;;;;;;;20.22;31.69;102147.72;10399655;28;19992;-73
2023/03/02 13:51:17;;;;;;;;;;;;;;;22.51;30.57;102129.97;10416633;28;20269;-73
2023/03/02 13:56:20;;;;;;;;;;;;;;;21.45;30.94;102137.09;10399898;28;19925;-73
2023/03/02 14:01:22;;;;;;;;;;;;;;;22.41;32.75;102135.28;10416143;28;19929;-73
2023/03/02 14:06:24;;;;;;;;;;;;;;;22.50;31.88;102124.78;10416482;28;19932;-73
2023/03/02 14:11:28;;;;;;;;;;;;;;;21.63;31.17;102128.56;10416405;28;20296;-73
2023/03/02 14:16:33;;;;;;;;;;;;;;;24.23;30.31;102120.69;10398512;28;19979;-72
2023/03/02 14:21:35;;;;;;;;;;;;;;;24.85;29.25;102108.44;10416836;28;19929;-73
2023/03/02 14:26:42;;;;;;;;;;;;;;;23.03;29.61;102107.63;10415922;28;19925;-72
2023/03/02 14:31:45;;;;;;;;;;;;;;;24.03;28.33;102118.06;10415243;28;19929;-72
2023/03/02 14:36:48;;;;;;;;;;;;;;;27.33;24.95;102110.88;10416203;28;19925;-72
2023/03/02 14:41:50;;;;;;;;;;;;;;;26.52;25.50;102097.84;10415047;28;19948;-72
2023/03/02 14:46:56;;;;;;;;;;;;;;;24.46;29.97;102094.38;10414159;28;20398;-72
2023/03/02 14:52:03;;;;;;;;;;;;;;;26.63;25.06;102096.75;10414213;28;20004;-72
2023/03/02 14:57:08;;;;;;;;;;;;;;;27.92;23.84;102089.97;10414006;28;20339;-72
2023/03/02 15:02:11;;;;;;;;;;;;;;;29.88;23.11;102080.06;10414692;28;19925;-72
2023/03/02 15:07:26;;;;;;;;;;;;;;;28.51;23.43;102073.47;10423386;28;20380;-71
2023/03/02 15:12:28;;;;;;;;;;;;;;;28.85;24.48;102083.06;10423149;28;19929;-72
2023/03/02 15:17:31;;;;;;;;;;;;;;;21.78;30.53;102089.97;10423561;28;19932;-71
2023/03/02 15:22:33;;;;;;;;;;;;;;;20.06;34.12;102096.69;10423464;28;19952;-71
2023/03/02 15:27:35;;;;;;;;;;;;;;;17.63;37.43;102091.88;10405083;28;19929;-71
2023/03/02 15:32:37;;;;;;;;;;;;;;;17.28;39.31;102086.22;10422429;28;20418;-70
2023/03/02 15:37:40;;;;;;;;;;;;;;;18.13;38.25;102092.03;10422790;28;19952;-70
2023/03/02 15:42:42;;;;;;;;;;;;;;;20.82;34.23;102088.13;10421838;28;19925;-69
2023/03/02 15:47:44;;;;;;;;;;;;;;;20.95;34.02;102092.31;10422502;28;19925;-70
2023/03/02 15:52:46;;;;;;;;;;;;;;;18.75;36.67;102093.88;10421793;28;19931;-71
2023/03/02 15:57:49;;;;;;;;;;;;;;;16.05;41.38;102091.25;10421406;28;20328;-69
2023/03/02 16:02:51;;;;;;;;;;;;;;;14.57;43.22;102102.19;10421953;28;19925;-69
2023/03/02 16:07:53;;;;;;;;;;;;;;;12.96;47.37;102104.00;10404246;28;19925;-69
2023/03/02 16:12:55;;;;;;;;;;;;;;;12.84;47.58;102094.91;10421586;28;19936;-69
2023/03/02 16:17:57;;;;;;;;;;;;;;;11.37;51.76;102095.06;10401930;28;19925;-69
2023/03/02 16:23:01;;;;;;;;;;;;;;;10.73;53.16;102107.13;10419257;28;20028;-68
2023/03/02 16:28:03;;;;;;;;;;;;;;;10.34;54.61;102112.91;10420993;28;19925;-68
2023/03/02 16:33:07;;;;;;;;;;;;;;;9.67;56.77;102114.25;10419335;28;19929;-68
2023/03/02 16:38:10;;;;;;;;;;;;;;;9.43;57.54;102120.25;10400158;28;19925;-68
2023/03/02 16:43:14;;;;;;;;;;;;;;;9.10;57.97;102121.25;10418774;28;21566;-68
2023/03/02 16:48:16;;;;;;;;;;;;;;;9.33;57.30;102118.84;10420241;28;19975;-68
2023/03/02 16:53:19;;;;;;;;;;;;;;;8.72;59.28;102128.47;10420673;28;20281;-68
2023/03/02 16:58:21;;;;;;;;;;;;;;;8.31;60.62;102132.16;10417927;28;19952;-68
2023/03/02 17:03:23;;;;;;;;;;;;;;;8.12;60.51;102150.91;10418384;28;20265;-68
2023/03/02 17:08:25;;;;;;;;;;;;;;;7.90;61.37;102149.72;10418735;28;19933;-67
2023/03/02 17:13:27;;;;;;;;;;;;;;;7.70;63.07;102158.91;10417977;28;20442;-68
2023/03/02 17:18:30;;;;;;;;;;;;;;;7.24;64.23;102165.97;10416933;28;19925;-67
2023/03/02 17:23:32;;;;;;;;;;;;;;;7.26;66.11;102163.34;10401222;28;19925;-67
2023/03/02 17:28:34;;;;;;;;;;;;;;;6.93;68.22;102176.19;10400871;28;19975;-67
2023/03/02 17:33:37;;;;;;;;;;;;;;;6.61;69.30;102187.25;10415911;28;19925;-66
2023/03/02 17:38:39;;;;;;;;;;;;;;;6.81;69.95;102194.66;10417185;28;19925;-67
2023/03/02 17:43:41;;;;;;;;;;;;;;;6.24;71.96;102198.28;10415985;28;19976;-66
2023/03/02 17:48:43;;;;;;;;;;;;;;;6.34;72.41;102202.44;10417162;28;19925;-67
2023/03/02 17:53:46;;;;;;;;;;;;;;;6.14;73.43;102203.63;10417508;28;19929;-66
2023/03/02 17:58:56;;;;;;;;;;;;;;;6.06;74.00;102215.03;10415482;28;19925;-66
2023/03/02 18:03:58;;;;;;;;;;;;;;;5.80;76.21;102223.19;10399125;28;19924;-66
2023/03/02 18:09:00;;;;;;;;;;;;;;;5.77;76.98;102232.75;10416084;28;19959;-66
2023/03/02 18:14:02;;;;;;;;;;;;;;;5.64;77.44;102239.00;10416092;28;19953;-66
2023/03/02 18:19:05;;;;;;;;;;;;;;;5.52;78.26;102249.56;10414154;28;19925;-66
2023/03/02 18:24:07;;;;;;;;;;;;;;;5.54;78.22;102247.81;10416025;28;20296;-66
2023/03/02 18:29:10;;;;;;;;;;;;;;;5.34;79.34;102261.06;10415626;28;19925;-66
2023/03/02 18:34:12;;;;;;;;;;;;;;;5.11;79.84;102262.19;10415756;28;19925;-66
2023/03/02 18:39:14;;;;;;;;;;;;;;;5.23;82.20;102279.38;10412680;28;19980;-66
2023/03/02 18:44:17;;;;;;;;;;;;;;;4.78;84.58;102279.81;10415285;28;19976;-66
2023/03/02 18:49:19;;;;;;;;;;;;;;;4.54;86.70;102280.03;10415148;28;19925;-66
2023/03/02 18:54:22;;;;;;;;;;;;;;;4.74;86.54;102282.44;10415134;28;20343;-66
2023/03/02 18:59:24;;;;;;;;;;;;;;;4.36;87.55;102284.50;10398257;28;19925;-66
2023/03/02 19:04:26;;;;;;;;;;;;;;;4.18;89.61;102295.00;10404934;28;20423;-66
2023/03/02 19:09:29;;;;;;;;;;;;;;;4.24;88.38;102298.41;10415296;28;19929;-67
2023/03/02 19:14:31;;;;;;;;;;;;;;;4.04;88.62;102308.06;10398115;28;19952;-66
2023/03/02 19:19:34;;;;;;;;;;;;;;;3.96;90.68;102307.25;10413808;28;19994;-66
2023/03/02 19:24:36;;;;;;;;;;;;;;;4.21;90.68;102301.03;10416115;28;19975;-66
2023/03/02 19:29:39;;;;;;;;;;;;;;;3.78;88.97;102310.78;10415363;28;19925;-65
2023/03/02 19:34:43;;;;;;;;;;;;;;;3.55;87.76;102314.34;10396507;28;19929;-66
2023/03/02 19:39:45;;;;;;;;;;;;;;;3.55;91.16;102319.53;10408278;28;19929;-65
2023/03/02 19:44:47;;;;;;;;;;;;;;;3.15;89.07;102312.72;10412749;28;19929;-65
2023/03/02 19:49:49;;;;;;;;;;;;;;;3.16;90.08;102322.22;10416624;28;20040;-66
2023/03/02 19:54:52;;;;;;;;;;;;;;;3.13;87.85;102326.53;10422236;28;19925;-65
2023/03/02 19:59:54;;;;;;;;;;;;;;;2.96;89.89;102324.00;10418515;28;20302;-65
2023/03/02 20:04:56;;;;;;;;;;;;;;;2.93;90.87;102326.56;10400766;28;19933;-65
2023/03/02 20:09:58;;;;;;;;;;;;;;;2.83;91.89;102330.88;10418137;28;19940;-65
2023/03/02 20:15:01;;;;;;;;;;;;;;;2.50;90.99;102326.56;10418185;28;19932;-66
2023/03/02 20:20:04;;;;;;;;;;;;;;;2.47;92.14;102332.63;10404147;28;19929;-66
2023/03/02 20:25:06;;;;;;;;;;;;;;;2.40;91.31;102331.75;10417277;28;20345;-65
2023/03/02 20:30:10;;;;;;;;;;;;;;;2.11;92.04;102344.59;10395870;28;19937;-66
2023/03/02 20:35:12;;;;;;;;;;;;;;;1.92;94.02;102348.84;10405578;28;19937;-66
2023/03/02 20:40:15;;;;;;;;;;;;;;;1.73;93.76;102347.94;10386980;28;20623;-65
2023/03/02 20:45:17;;;;;;;;;;;;;;;1.99;94.50;102348.00;10378643;28;21080;-66
2023/03/02 20:50:21;;;;;;;;;;;;;;;1.82;95.86;102349.69;10405819;28;19953;-66
2023/03/02 20:55:25;;;;;;;;;;;;;;;1.67;96.48;102359.06;10418303;28;19925;-66
2023/03/02 21:00:28;;;;;;;;;;;;;;;1.52;96.20;102355.56;10391242;28;20524;-65
2023/03/02 21:05:32;;;;;;;;;;;;;;;1.36;96.66;102357.19;10407262;28;19929;-65
2023/03/02 21:10:35;;;;;;;;;;;;;;;1.87;96.57;102358.31;10399410;28;20426;-65
2023/03/02 21:15:37;;;;;;;;;;;;;;;1.74;95.51;102352.22;10419115;28;19925;-65
2023/03/02 21:20:40;;;;;;;;;;;;;;;1.55;98.98;102348.69;10416279;28;20359;-62
2023/03/02 21:25:43;;;;;;;;;;;;;;;1.55;98.22;102345.25;10400686;28;19925;-62
2023/03/02 21:30:45;;;;;;;;;;;;;;;1.38;97.59;102356.34;10416996;28;19925;-63
2023/03/02 21:35:48;;;;;;;;;;;;;;;1.46;97.99;102359.84;10417432;28;19932;-62
2023/03/02 21:40:50;;;;;;;;;;;;;;;1.36;98.60;102359.75;10416966;28;19932;-61
2023/03/02 21:45:52;;;;;;;;;;;;;;;1.25;98.54;102350.25;10416437;28;20402;-62
2023/03/02 21:50:55;;;;;;;;;;;;;;;1.15;98.67;102351.03;10416412;28;20380;-62
2023/03/02 21:55:57;;;;;;;;;;;;;;;1.11;99.50;102347.56;10416245;28;20418;-62
2023/03/02 22:00:59;;;;;;;;;;;;;;;1.04;99.01;102350.09;10417317;28;19925;-61
2023/03/02 22:06:01;;;;;;;;;;;;;;;0.96;99.38;102355.22;10417139;28;19925;-62
2023/03/02 22:11:04;;;;;;;;;;;;;;;1.11;99.53;102345.00;10415792;28;19925;-62
2023/03/02 22:16:14;;;;;;;;;;;;;;;1.21;100.00;102343.34;10414341;28;21321;-62
2023/03/02 22:21:19;;;;;;;;;;;;;;;1.14;100.00;102351.88;10416792;28;19975;-62
2023/03/02 22:26:21;;;;;;;;;;;;;;;1.29;100.00;102352.00;10415781;28;19925;-62
2023/03/02 22:31:23;;;;;;;;;;;;;;;1.98;100.00;102356.59;10415976;28;19925;-62
2023/03/02 22:36:25;;;;;;;;;;;;;;;2.03;100.00;102360.09;10414169;28;19932;-62
2023/03/02 22:41:28;;;;;;;;;;;;;;;1.77;100.00;102362.56;10398074;28;20364;-62
2023/03/02 22:46:30;;;;;;;;;;;;;;;2.07;100.00;102368.72;10415482;28;19925;-62
2023/03/02 22:51:32;;;;;;;;;;;;;;;2.00;100.00;102359.19;10414090;28;20392;-62
2023/03/02 22:56:36;;;;;;;;;;;;;;;2.05;100.00;102370.41;10395847;28;19932;-62
2023/03/02 23:01:39;;;;;;;;;;;;;;;1.84;100.00;102366.88;10398362;28;19972;-62
2023/03/02 23:06:46;;;;;;;;;;;;;;;2.17;100.00;102364.41;10415041;28;20304;-62
2023/03/02 23:11:48;;;;;;;;;;;;;;;1.96;100.00;102358.31;10397716;28;19932;-62
2023/03/02 23:16:52;;;;;;;;;;;;;;;2.11;100.00;102364.41;10413119;28;20261;-62
2023/03/02 23:21:54;;;;;;;;;;;;;;;1.70;100.00;102362.50;10414947;28;19925;-62
2023/03/02 23:26:56;;;;;;;;;;;;;;;1.67;100.00;102365.97;10420903;28;19936;-62
2023/03/02 23:31:59;;;;;;;;;;;;;;;2.11;100.00;102364.41;10421716;28;19925;-62
2023/03/02 23:37:01;;;;;;;;;;;;;;;2.07;100.00;102357.50;10421267;28;19980;-62
2023/03/02 23:42:03;;;;;;;;;;;;;;;1.90;100.00;102367.78;10422312;28;19925;-63
2023/03/02 23:47:06;;;;;;;;;;;;;;;1.85;100.00;102367.78;10420547;28;20343;-63
2023/03/02 23:52:08;;;;;;;;;;;;;;;1.94;100.00;102367.78;10421820;28;19963;-63
2023/03/02 23:57:10;;;;;;;;;;;;;;;1.57;100.00;102375.38;10419949;28;20438;-63
